Time;durP1;ratioP1;P1;durP2;ratioP2;P2;SDS_P1;SDS_P2;PMS_P1;PMS_P2;Temp;Humidity;BMP_temperature;BMP_pressure;BME280_temperature;BME280_humidity;BME280_pressure;Samples;Min_cycle;Max_cycle;Signal;HPM_P1;HPM_P2
2022/09/25 00:00:59;;;;;;;2.65;1.00;;;8.60;99.90;;;;;;5028698;28;20102;-83
2022/09/25 00:03:28;;;;;;;3.70;0.98;;;8.60;99.90;;;;;;5041206;28;20046;-83
2022/09/25 00:06:07;;;;;;;2.10;0.75;;;8.60;99.90;;;;;;5042120;28;20033;-83
2022/09/25 00:08:35;;;;;;;3.97;1.10;;;8.50;99.90;;;;;;5045816;28;20085;-83
2022/09/25 00:11:07;;;;;;;2.63;0.82;;;8.60;99.90;;;;;;5029592;28;20124;-83
2022/09/25 00:13:34;;;;;;;3.35;0.80;;;8.50;99.90;;;;;;5048439;28;20068;-83
2022/09/25 00:16:02;;;;;;;4.07;0.98;;;8.40;99.90;;;;;;5016710;28;20506;-83
2022/09/25 00:21:16;;;;;;;6.70;0.77;;;8.40;99.90;;;;;;5065999;28;20038;-83
2022/09/25 00:23:44;;;;;;;2.40;1.00;;;8.40;99.90;;;;;;5032810;28;20409;-83
2022/09/25 00:26:13;;;;;;;3.05;0.95;;;8.40;99.90;;;;;;5065893;28;20037;-83
2022/09/25 00:28:41;;;;;;;8.20;1.10;;;8.40;99.90;;;;;;5049322;28;20044;-83
2022/09/25 00:31:09;;;;;;;4.80;0.90;;;8.40;99.90;;;;;;5065958;28;20512;-83
2022/09/25 00:33:36;;;;;;;3.22;0.80;;;8.30;99.90;;;;;;5049025;28;20401;-82
2022/09/25 00:36:06;;;;;;;2.38;0.90;;;8.40;99.90;;;;;;5049043;28;20038;-83
2022/09/25 00:38:34;;;;;;;2.08;0.90;;;8.30;99.90;;;;;;5033006;28;20030;-83
2022/09/25 00:41:02;;;;;;;3.35;0.80;;;8.40;99.90;;;;;;5033198;28;20044;-83
2022/09/25 00:43:43;;;;;;;3.60;0.90;;;8.30;99.90;;;;;;5032575;28;20049;-83
2022/09/25 00:46:25;;;;;;;5.15;1.05;;;8.30;99.90;;;;;;5049344;28;20042;-83
2022/09/25 00:48:57;;;;;;;4.63;1.05;;;8.30;99.90;;;;;;5049034;28;20048;-83
2022/09/25 00:51:29;;;;;;;4.97;1.25;;;8.30;99.90;;;;;;5048900;28;20412;-83
2022/09/25 00:54:00;;;;;;;4.78;0.90;;;8.40;99.90;;;;;;5048552;28;20049;-83
2022/09/25 00:56:31;;;;;;;2.45;0.90;;;8.30;99.90;;;;;;5048910;28;20046;-83
2022/09/25 00:58:58;;;;;;;6.07;1.13;;;8.30;99.90;;;;;;5048966;28;20030;-83
2022/09/25 01:01:25;;;;;;;3.80;1.00;;;8.30;99.90;;;;;;5032665;28;20092;-83
2022/09/25 01:03:54;;;;;;;6.60;0.98;;;8.30;99.90;;;;;;5016346;28;20077;-83
2022/09/25 01:06:24;;;;;;;4.25;1.13;;;8.30;99.90;;;;;;5033434;28;20044;-83
2022/09/25 01:08:51;;;;;;;3.13;0.98;;;8.30;99.90;;;;;;5036158;28;20037;-83
2022/09/25 01:11:17;;;;;;;9.43;1.33;;;8.30;99.90;;;;;;5036384;28;20040;-83
2022/09/25 01:13:44;;;;;;;5.35;1.10;;;8.30;99.90;;;;;;5051853;28;20060;-83
2022/09/25 01:16:23;;;;;;;7.43;1.08;;;8.30;99.90;;;;;;5019733;28;20045;-83
2022/09/25 01:18:56;;;;;;;3.38;1.00;;;8.30;99.90;;;;;;5051989;28;20044;-83
2022/09/25 01:21:44;;;;;;;6.03;1.15;;;8.30;99.90;;;;;;5052095;28;20568;-83
2022/09/25 01:24:34;;;;;;;2.55;1.00;;;8.30;99.90;;;;;;5048695;28;20073;-83
2022/09/25 01:27:24;;;;;;;3.03;1.00;;;8.30;99.90;;;;;;5031593;28;20038;-83
2022/09/25 01:30:19;;;;;;;2.63;0.95;;;8.20;99.90;;;;;;5032061;28;20042;-83
2022/09/25 01:33:17;;;;;;;4.18;1.30;;;8.20;99.90;;;;;;5031849;28;20040;-83
2022/09/25 01:35:51;;;;;;;4.15;0.75;;;8.20;99.90;;;;;;5064555;28;20097;-83
2022/09/25 01:38:25;;;;;;;5.45;0.95;;;8.20;99.90;;;;;;5048308;28;20142;-83
2022/09/25 01:41:06;;;;;;;5.53;1.20;;;8.20;99.90;;;;;;5031675;28;20041;-83
2022/09/25 01:43:43;;;;;;;3.47;1.17;;;8.50;99.90;;;;;;5032282;28;20059;-83
2022/09/25 01:46:27;;;;;;;2.53;1.08;;;8.10;99.90;;;;;;5032001;28;20088;-84
2022/09/25 01:49:02;;;;;;;3.60;1.10;;;8.10;99.90;;;;;;5031845;28;20038;-83
2022/09/25 01:51:37;;;;;;;5.10;0.88;;;8.10;99.90;;;;;;5031970;28;20077;-83
2022/09/25 01:54:12;;;;;;;6.00;0.93;;;8.20;99.90;;;;;;5031538;28;20379;-83
2022/09/25 01:57:04;;;;;;;4.50;1.13;;;8.00;99.90;;;;;;5031810;28;20110;-83
2022/09/25 01:59:36;;;;;;;3.22;0.90;;;8.10;99.90;;;;;;5031682;28;20074;-83
2022/09/25 02:02:07;;;;;;;4.00;0.90;;;8.00;99.90;;;;;;5031435;28;20050;-83
2022/09/25 02:04:38;;;;;;;4.53;0.98;;;8.00;99.90;;;;;;5031621;28;20045;-83
2022/09/25 02:07:09;;;;;;;3.53;0.88;;;8.00;99.90;;;;;;5031314;28;20490;-83
2022/09/25 02:09:44;;;;;;;2.55;0.85;;;7.90;99.90;;;;;;5031519;28;20100;-83
2022/09/25 02:12:21;;;;;;;4.00;1.13;;;8.10;99.90;;;;;;5031716;28;20129;-83
2022/09/25 02:15:18;;;;;;;5.60;1.00;;;7.90;99.90;;;;;;5050947;28;20046;-83
2022/09/25 02:20:41;;;;;;;2.25;0.80;;;7.80;99.90;;;;;;5067847;28;20034;-83
2022/09/25 02:23:22;;;;;;;3.38;0.70;;;7.80;99.90;;;;;;5041242;28;20033;-83
2022/09/25 02:25:58;;;;;;;2.95;0.90;;;7.80;99.90;;;;;;5050926;28;20056;-83
2022/09/25 02:28:25;;;;;;;3.38;0.95;;;7.70;99.90;;;;;;5034598;28;20383;-83
2022/09/25 02:30:55;;;;;;;5.80;1.05;;;7.70;99.90;;;;;;5002028;28;20041;-83
2022/09/25 02:33:22;;;;;;;3.55;0.80;;;7.70;99.90;;;;;;5050931;28;20508;-83
2022/09/25 02:35:49;;;;;;;4.28;0.98;;;7.70;99.90;;;;;;5007457;28;20128;-83
2022/09/25 02:38:16;;;;;;;7.07;1.25;;;7.70;99.90;;;;;;5001990;28;20179;-83
2022/09/25 02:40:52;;;;;;;4.80;0.80;;;8.00;99.90;;;;;;5001960;28;20485;-83
2022/09/25 02:43:48;;;;;;;;;;;7.60;99.90;;;;;;5034703;28;20038;-83
2022/09/25 02:46:28;;;;;;;2.88;0.80;;;7.60;99.90;;;;;;5030231;28;19917;-83
2022/09/25 02:49:08;;;;;;;2.92;0.82;;;7.60;99.90;;;;;;5053940;28;20052;-83
2022/09/25 02:51:59;;;;;;;4.10;0.75;;;8.20;99.90;;;;;;5054008;28;20045;-82
2022/09/25 02:54:26;;;;;;;5.57;0.95;;;7.50;99.90;;;;;;5036712;28;20045;-83
2022/09/25 02:57:03;;;;;;;3.13;0.82;;;7.40;99.90;;;;;;5053323;28;20411;-83
2022/09/25 02:59:36;;;;;;;9.40;1.00;;;7.50;99.90;;;;;;5054225;28;20055;-83
2022/09/25 03:02:03;;;;;;;2.78;0.70;;;7.40;99.90;;;;;;5069952;28;20400;-83
2022/09/25 03:04:34;;;;;;;1.40;0.68;;;8.00;99.90;;;;;;5053734;28;20041;-83
2022/09/25 03:07:01;;;;;;;1.92;0.77;;;7.50;99.90;;;;;;5053269;28;20076;-82
2022/09/25 03:09:32;;;;;;;2.28;1.02;;;7.60;99.90;;;;;;5037416;28;20045;-83
2022/09/25 03:12:03;;;;;;;1.25;0.60;;;7.40;99.90;;;;;;5053654;28;20432;-83
2022/09/25 03:14:30;;;;;;;4.32;0.98;;;7.40;99.90;;;;;;5069637;28;20049;-83
2022/09/25 03:17:02;;;;;;;4.45;0.80;;;7.40;99.90;;;;;;5036871;28;20123;-83
2022/09/25 03:19:29;;;;;;;6.85;0.98;;;8.10;99.90;;;;;;5053656;28;20083;-83
2022/09/25 03:21:56;;;;;;;5.03;0.70;;;7.30;99.90;;;;;;5052909;28;20071;-83
2022/09/25 03:24:23;;;;;;;3.63;0.90;;;7.70;99.90;;;;;;5053214;28;20463;-83
2022/09/25 03:26:50;;;;;;;1.65;0.68;;;7.30;99.90;;;;;;5021112;28;20045;-83
2022/09/25 03:29:17;;;;;;;1.95;0.80;;;7.70;99.90;;;;;;5036414;28;20067;-83
2022/09/25 03:31:44;;;;;;;3.40;0.88;;;7.80;99.90;;;;;;5020596;28;20106;-83
2022/09/25 03:34:12;;;;;;;4.35;0.90;;;7.50;99.90;;;;;;5052817;28;20037;-83
2022/09/25 03:36:40;;;;;;;5.20;1.00;;;7.20;99.90;;;;;;5069893;28;20044;-83
2022/09/25 03:39:09;;;;;;;4.45;0.68;;;7.20;99.90;;;;;;5069489;28;20064;-83
2022/09/25 03:41:36;;;;;;;2.72;0.98;;;7.20;99.90;;;;;;5053094;28;20068;-83
2022/09/25 03:44:03;;;;;;;1.75;0.95;;;7.20;99.90;;;;;;5052908;28;20076;-83
2022/09/25 03:46:32;;;;;;;4.70;1.00;;;7.10;99.90;;;;;;5053010;28;20041;-83
2022/09/25 03:49:00;;;;;;;1.92;0.80;;;7.10;99.90;;;;;;5052498;28;20683;-83
2022/09/25 03:51:29;;;;;;;1.55;0.70;;;7.10;99.90;;;;;;5053026;28;20048;-83
2022/09/25 03:53:55;;;;;;;2.72;0.60;;;7.10;99.90;;;;;;5036743;28;20417;-83
2022/09/25 03:56:25;;;;;;;5.28;1.20;;;7.10;99.90;;;;;;5020796;28;20037;-83
2022/09/25 03:58:54;;;;;;;2.40;0.77;;;7.10;99.90;;;;;;5052792;28;20037;-83
2022/09/25 04:01:21;;;;;;;4.72;0.80;;;7.10;99.90;;;;;;5068828;28;20122;-83
2022/09/25 04:03:49;;;;;;;5.93;0.85;;;7.20;99.90;;;;;;5052956;28;20087;-82
2022/09/25 04:06:18;;;;;;;2.25;0.70;;;7.00;99.90;;;;;;5036797;28;20131;-83
2022/09/25 04:08:46;;;;;;;1.67;0.98;;;7.00;99.90;;;;;;5053070;28;20488;-83
2022/09/25 04:11:18;;;;;;;3.65;0.85;;;7.00;99.90;;;;;;5052344;28;20416;-83
2022/09/25 04:13:44;;;;;;;3.00;1.08;;;7.00;99.90;;;;;;5020836;28;20409;-83
2022/09/25 04:16:12;;;;;;;5.90;1.00;;;7.00;99.90;;;;;;5052485;28;20038;-83
2022/09/25 04:18:41;;;;;;;1.63;0.68;;;7.00;99.90;;;;;;5036434;28;20493;-83
2022/09/25 04:21:10;;;;;;;2.40;0.82;;;7.10;99.90;;;;;;5036854;28;20029;-83
2022/09/25 04:23:38;;;;;;;2.33;0.88;;;7.00;99.90;;;;;;5069092;28;20037;-83
2022/09/25 04:26:05;;;;;;;4.72;1.10;;;6.90;99.90;;;;;;5052262;28;20836;-83
2022/09/25 04:28:32;;;;;;;3.95;0.70;;;6.90;99.90;;;;;;5068713;28;20111;-83
2022/09/25 04:30:59;;;;;;;4.28;0.98;;;6.90;99.90;;;;;;5019994;28;20098;-83
2022/09/25 04:36:11;;;;;;;3.00;0.75;;;7.10;99.90;;;;;;5068561;28;20409;-83
2022/09/25 04:38:38;;;;;;;1.15;0.75;;;6.90;99.90;;;;;;5036211;28;20080;-83
2022/09/25 04:41:06;;;;;;;1.85;0.70;;;7.10;99.90;;;;;;5035849;28;20465;-83
2022/09/25 04:43:34;;;;;;;5.05;1.00;;;6.80;99.90;;;;;;5040494;28;20086;-83
2022/09/25 04:46:05;;;;;;;2.78;0.85;;;6.80;99.90;;;;;;5056268;28;20045;-83
2022/09/25 04:48:33;;;;;;;2.20;0.80;;;6.80;99.90;;;;;;5040026;28;20041;-83
2022/09/25 04:50:59;;;;;;;1.23;0.63;;;6.80;99.90;;;;;;5023825;28;20072;-83
2022/09/25 04:53:28;;;;;;;3.40;1.05;;;6.80;99.90;;;;;;5009518;28;20076;-83
2022/09/25 04:56:07;;;;;;;2.53;0.75;;;6.80;99.90;;;;;;5020318;28;20095;-82
2022/09/25 04:58:34;;;;;;;3.45;0.80;;;6.70;99.90;;;;;;5036176;28;20041;-83
2022/09/25 05:01:04;;;;;;;3.35;1.10;;;6.70;99.90;;;;;;5036073;28;20048;-83
2022/09/25 05:03:30;;;;;;;5.88;1.48;;;6.70;99.90;;;;;;5045898;28;20528;-82
2022/09/25 05:05:58;;;;;;;4.68;0.85;;;6.70;99.90;;;;;;5039589;28;20072;-83
2022/09/25 05:08:26;;;;;;;1.98;0.73;;;7.20;99.90;;;;;;5023028;28;20045;-83
2022/09/25 05:10:53;;;;;;;2.78;0.85;;;6.70;99.90;;;;;;5039289;28;20040;-83
2022/09/25 05:13:20;;;;;;;1.77;0.88;;;7.10;99.90;;;;;;5021873;28;20057;-83
2022/09/25 05:15:46;;;;;;;5.68;1.20;;;6.60;99.90;;;;;;5022542;28;20045;-83
2022/09/25 05:18:20;;;;;;;4.85;0.90;;;7.40;99.90;;;;;;5019089;28;20040;-83
2022/09/25 05:20:47;;;;;;;3.92;1.00;;;6.60;99.90;;;;;;5071856;28;20401;-83
2022/09/25 05:23:15;;;;;;;3.63;1.10;;;6.80;99.90;;;;;;5054822;28;20032;-83
2022/09/25 05:25:42;;;;;;;1.77;0.73;;;7.20;99.90;;;;;;5039269;28;20040;-83
2022/09/25 05:28:08;;;;;;;5.13;1.17;;;6.60;99.90;;;;;;5038577;28;20107;-83
2022/09/25 05:30:37;;;;;;;3.08;1.05;;;6.60;99.90;;;;;;5022777;28;20041;-83
2022/09/25 05:33:04;;;;;;;3.83;0.88;;;6.60;99.90;;;;;;5054967;28;20549;-83
2022/09/25 05:35:32;;;;;;;7.18;1.15;;;6.60;99.90;;;;;;5034814;28;20132;-83
2022/09/25 05:37:59;;;;;;;4.78;1.27;;;6.70;99.90;;;;;;5035197;28;20873;-83
2022/09/25 05:40:26;;;;;;;4.97;1.23;;;6.70;99.90;;;;;;5035466;28;20041;-83
2022/09/25 05:42:54;;;;;;;2.17;1.00;;;6.90;99.90;;;;;;5035478;28;20060;-83
2022/09/25 05:45:22;;;;;;;2.33;1.00;;;6.80;99.90;;;;;;5027856;28;20055;-83
2022/09/25 05:47:59;;;;;;;7.13;1.08;;;6.80;99.90;;;;;;5055105;28;20044;-83
2022/09/25 05:50:25;;;;;;;2.85;0.90;;;6.90;99.90;;;;;;5040070;28;20040;-83
2022/09/25 05:53:00;;;;;;;6.22;1.10;;;6.90;99.90;;;;;;5038283;28;20037;-83
2022/09/25 05:55:28;;;;;;;8.32;1.17;;;6.90;99.90;;;;;;5054580;28;20068;-83
2022/09/25 05:58:02;;;;;;;3.95;1.10;;;6.90;99.90;;;;;;5038677;28;20052;-83
2022/09/25 06:00:31;;;;;;;2.13;0.95;;;6.90;99.90;;;;;;5054682;28;20448;-83
2022/09/25 06:03:01;;;;;;;3.22;1.00;;;6.90;99.90;;;;;;5038912;28;20114;-83
2022/09/25 06:05:29;;;;;;;3.00;0.98;;;6.90;99.90;;;;;;5038108;28;20045;-83
2022/09/25 06:07:55;;;;;;;3.80;0.98;;;7.10;99.90;;;;;;5071422;28;20033;-83
2022/09/25 06:10:25;;;;;;;2.90;0.98;;;6.90;99.90;;;;;;5022087;28;20052;-83
2022/09/25 06:12:58;;;;;;;3.10;0.80;;;6.90;99.90;;;;;;5054452;28;20106;-83
2022/09/25 06:15:27;;;;;;;2.58;1.20;;;6.90;99.90;;;;;;5054259;28;20515;-83
2022/09/25 06:17:55;;;;;;;6.88;1.40;;;7.00;99.90;;;;;;5070412;28;20076;-83
2022/09/25 06:20:22;;;;;;;4.57;1.15;;;7.00;99.90;;;;;;5070485;28;20094;-83
2022/09/25 06:22:56;;;;;;;1.95;1.00;;;7.00;99.90;;;;;;5038003;28;20041;-83
2022/09/25 06:25:25;;;;;;;1.77;0.90;;;7.70;99.90;;;;;;5054319;28;20063;-83
2022/09/25 06:27:57;;;;;;;3.53;1.20;;;7.10;99.90;;;;;;5054335;28;20043;-83
2022/09/25 06:30:26;;;;;;;3.78;1.02;;;7.20;99.90;;;;;;5054159;28;20119;-84
2022/09/25 06:33:09;;;;;;;1.95;1.10;;;7.20;99.90;;;;;;5021947;28;20424;-83
2022/09/25 06:35:43;;;;;;;1.15;0.75;;;7.30;99.90;;;;;;5035822;28;20033;-83
2022/09/25 06:38:11;;;;;;;2.60;1.05;;;7.30;99.90;;;;;;5044574;28;20033;-83
2022/09/25 06:40:39;;;;;;;6.80;1.13;;;7.40;99.90;;;;;;5053592;28;20547;-83
2022/09/25 06:43:09;;;;;;;3.13;1.30;;;7.50;99.90;;;;;;5034245;28;20128;-83
2022/09/25 06:45:37;;;;;;;4.32;1.20;;;7.50;99.90;;;;;;5063643;28;20492;-83
2022/09/25 06:48:08;;;;;;;7.03;1.00;;;7.60;99.90;;;;;;5061243;28;20049;-83
2022/09/25 06:50:40;;;;;;;2.70;1.13;;;7.60;99.90;;;;;;5049811;28;20044;-83
2022/09/25 06:53:08;;;;;;;1.83;0.93;;;7.90;99.90;;;;;;5068852;28;20041;-83
2022/09/25 06:55:35;;;;;;;6.97;1.17;;;7.80;99.90;;;;;;5022708;28;20124;-83
2022/09/25 06:58:03;;;;;;;3.30;0.90;;;7.90;99.90;;;;;;5010334;28;20076;-83
2022/09/25 07:00:32;;;;;;;2.60;1.05;;;7.90;99.90;;;;;;5038207;28;20036;-84
2022/09/25 07:05:46;;;;;;;4.18;1.27;;;8.00;99.90;;;;;;5058133;28;20494;-83
2022/09/25 07:08:15;;;;;;;3.65;1.00;;;8.10;99.90;;;;;;5005061;28;20413;-83
2022/09/25 07:10:53;;;;;;;3.22;1.10;;;8.20;99.90;;;;;;5046447;28;20094;-83
2022/09/25 07:13:23;;;;;;;5.82;1.15;;;8.30;99.90;;;;;;5041818;28;20102;-83
2022/09/25 07:15:55;;;;;;;2.22;0.98;;;8.40;99.90;;;;;;5053090;28;20394;-83
2022/09/25 07:18:23;;;;;;;10.13;1.30;;;8.50;99.90;;;;;;5053571;28;20037;-83
2022/09/25 07:20:50;;;;;;;4.30;1.40;;;8.80;99.90;;;;;;5052842;28;20421;-83
2022/09/25 07:23:18;;;;;;;2.35;1.15;;;8.60;99.90;;;;;;5051974;28;20452;-84
2022/09/25 07:25:46;;;;;;;5.13;1.25;;;8.70;99.90;;;;;;5025633;28;20041;-83
2022/09/25 07:28:14;;;;;;;3.80;1.13;;;8.70;99.90;;;;;;5047481;28;20094;-83
2022/09/25 07:30:42;;;;;;;6.55;1.20;;;8.90;99.90;;;;;;5054771;28;20084;-83
2022/09/25 07:33:09;;;;;;;3.85;1.25;;;9.00;99.90;;;;;;5052973;28;20120;-82
2022/09/25 07:35:36;;;;;;;5.60;1.35;;;9.10;99.90;;;;;;5011364;28;20144;-81
2022/09/25 07:38:03;;;;;;;9.50;1.92;;;9.20;99.90;;;;;;5032810;28;20500;-83
2022/09/25 07:40:32;;;;;;;3.72;1.00;;;9.40;99.90;;;;;;5018654;28;20041;-83
2022/09/25 07:43:05;;;;;;;7.22;1.65;;;9.50;99.90;;;;;;5018608;28;20128;-83
2022/09/25 07:45:32;;;;;;;4.15;1.27;;;9.60;99.90;;;;;;5034691;28;20045;-83
2022/09/25 07:48:01;;;;;;;7.43;1.00;;;9.80;99.90;;;;;;5026029;28;20039;-83
2022/09/25 07:50:29;;;;;;;6.15;1.40;;;9.90;99.90;;;;;;5033349;28;20041;-84
2022/09/25 07:52:56;;;;;;;5.20;1.25;;;10.00;99.90;;;;;;5018703;28;20045;-83
2022/09/25 07:55:23;;;;;;;6.30;1.33;;;10.20;99.90;;;;;;5036441;28;20046;-82
2022/09/25 07:57:50;;;;;;;4.65;1.20;;;10.40;99.90;;;;;;5035024;28;20103;-83
2022/09/25 08:00:17;;;;;;;2.75;1.20;;;10.50;99.90;;;;;;5004862;28;20082;-83
2022/09/25 08:02:53;;;;;;;8.50;1.20;;;10.70;99.90;;;;;;5019800;28;20132;-83
2022/09/25 08:05:20;;;;;;;2.30;0.95;;;10.80;99.90;;;;;;5046553;28;20091;-83
2022/09/25 08:07:46;;;;;;;6.07;0.93;;;10.90;99.90;;;;;;5011285;28;20092;-83
2022/09/25 08:10:13;;;;;;;5.22;1.20;;;11.00;99.90;;;;;;5000783;28;20037;-83
2022/09/25 08:12:40;;;;;;;4.85;1.15;;;11.20;99.90;;;;;;5025159;28;20080;-84
2022/09/25 08:15:09;;;;;;;6.72;0.95;;;11.30;99.90;;;;;;5008379;28;20409;-83
2022/09/25 08:17:36;;;;;;;3.40;0.82;;;11.50;99.90;;;;;;5001268;28;20038;-84
2022/09/25 08:20:03;;;;;;;6.22;1.10;;;11.60;99.90;;;;;;5010260;28;20596;-84
2022/09/25 08:22:29;;;;;;;5.95;0.88;;;11.70;99.90;;;;;;5012938;28;20073;-84
2022/09/25 08:24:56;;;;;;;5.43;0.98;;;11.80;99.90;;;;;;5016574;28;20405;-83
2022/09/25 08:27:23;;;;;;;2.15;0.68;;;12.00;99.90;;;;;;5023580;28;20042;-83
2022/09/25 08:29:49;;;;;;;1.45;0.70;;;12.10;99.90;;;;;;5017145;28;20100;-84
2022/09/25 08:32:16;;;;;;;2.13;0.90;;;12.30;99.90;;;;;;5008273;28;20065;-84
2022/09/25 08:34:42;;;;;;;3.63;0.73;;;12.30;99.90;;;;;;5027774;28;20041;-84
2022/09/25 08:37:10;;;;;;;8.00;0.90;;;12.50;99.90;;;;;;5025556;28;20042;-84
2022/09/25 08:39:36;;;;;;;6.90;0.95;;;12.60;99.90;;;;;;5029820;28;20037;-84
2022/09/25 08:42:04;;;;;;;2.80;0.73;;;12.80;99.90;;;;;;5019370;28;20108;-83
2022/09/25 08:44:35;;;;;;;1.52;0.63;;;13.00;99.90;;;;;;5072489;28;20435;-84
2022/09/25 08:50:21;;;;;;;4.30;0.77;;;13.40;99.90;;;;;;5070986;28;20049;-84
2022/09/25 08:52:52;;;;;;;7.65;0.95;;;13.60;99.90;;;;;;5076316;28;20144;-84
2022/09/25 08:56:13;;;;;;;1.55;0.70;;;13.80;99.90;;;;;;5050649;28;20044;-83
2022/09/25 08:58:28;;;;;;;1.13;0.60;;;13.90;99.90;;;;;;5066856;28;20037;-84
2022/09/25 09:01:02;;;;;;;3.50;0.52;;;13.90;99.90;;;;;;5045771;28;20130;-84
2022/09/25 09:03:31;;;;;;;5.90;0.80;;;13.90;99.90;;;;;;5049275;28;20037;-84
2022/09/25 09:06:03;;;;;;;2.38;0.57;;;14.00;99.90;;;;;;5056081;28;20033;-84
2022/09/25 09:08:35;;;;;;;3.17;0.60;;;14.00;99.90;;;;;;5049023;28;20045;-84
2022/09/25 09:11:11;;;;;;;2.75;0.90;;;14.00;99.90;;;;;;5052079;28;20051;-84
2022/09/25 09:13:57;;;;;;;4.88;0.70;;;14.10;99.90;;;;;;5045843;28;20060;-84
2022/09/25 09:16:45;;;;;;;2.75;0.52;;;14.20;99.90;;;;;;5048179;28;20093;-84
2022/09/25 09:19:12;;;;;;;2.15;0.40;;;14.40;99.90;;;;;;5043144;28;20041;-84
2022/09/25 09:21:54;;;;;;;4.57;0.57;;;14.50;99.90;;;;;;5038919;28;20045;-84
2022/09/25 09:24:52;;;;;;;0.85;0.50;;;14.50;99.90;;;;;;5051320;28;20048;-84
2022/09/25 09:27:50;;;;;;;4.22;0.68;;;14.50;99.90;;;;;;5051192;28;20892;-83
2022/09/25 09:30:47;;;;;;;2.25;0.35;;;14.50;99.90;;;;;;5049345;28;20079;-83
2022/09/25 09:33:56;;;;;;;3.40;0.50;;;14.50;99.90;;;;;;5042251;28;20445;-83
2022/09/25 09:36:33;;;;;;;1.70;0.50;;;14.50;99.90;;;;;;5048616;28;20116;-84
2022/09/25 09:39:27;;;;;;;0.88;0.63;;;14.70;99.90;;;;;;5051547;28;20506;-84
2022/09/25 09:42:09;;;;;;;1.98;0.50;;;14.80;99.90;;;;;;5050541;28;20496;-84
2022/09/25 09:44:48;;;;;;;3.70;0.40;;;15.00;99.90;;;;;;5049269;28;20493;-85
2022/09/25 09:47:24;;;;;;;1.35;0.45;;;15.10;99.90;;;;;;5047794;28;20501;-83
2022/09/25 09:50:23;;;;;;;4.97;0.50;;;15.20;99.90;;;;;;5058190;28;20041;-84
2022/09/25 09:52:57;;;;;;;1.08;0.22;;;15.30;99.90;;;;;;5036298;28;20046;-84
2022/09/25 09:56:03;;;;;;;5.72;0.52;;;15.30;99.90;;;;;;5068127;28;20049;-84
2022/09/25 09:58:50;;;;;;;1.20;0.57;;;15.30;99.90;;;;;;5036698;28;20513;-84
2022/09/25 10:01:21;;;;;;;1.45;0.45;;;15.20;99.90;;;;;;5046012;28;20819;-83
2022/09/25 10:03:57;;;;;;;1.85;0.52;;;15.10;99.90;;;;;;5042054;28;20052;-84
2022/09/25 10:06:27;;;;;;;3.47;0.65;;;15.10;99.90;;;;;;5047571;28;20049;-83
2022/09/25 10:08:53;;;;;;;1.92;0.43;;;15.30;99.90;;;;;;5066681;28;20135;-84
2022/09/25 10:11:21;;;;;;;3.03;0.60;;;15.40;99.90;;;;;;5051072;28;20480;-85
2022/09/25 10:13:48;;;;;;;5.35;0.80;;;15.60;99.90;;;;;;5063109;28;20077;-84
2022/09/25 10:16:18;;;;;;;1.55;0.60;;;15.80;99.90;;;;;;5066205;28;20512;-84
2022/09/25 10:19:09;;;;;;;3.50;0.70;;;15.90;99.90;;;;;;5050317;28;20038;-85
2022/09/25 10:21:43;;;;;;;4.68;0.70;;;15.80;99.90;;;;;;5046751;28;20104;-84
2022/09/25 10:24:34;;;;;;;0.68;0.50;;;15.80;99.90;;;;;;5047576;28;20048;-85
2022/09/25 10:27:35;;;;;;;6.18;0.70;;;15.80;99.90;;;;;;5066975;28;20052;-85
2022/09/25 10:30:08;;;;;;;3.03;0.85;;;15.70;99.90;;;;;;5085989;28;20132;-84
2022/09/25 10:33:02;;;;;;;4.75;0.80;;;15.70;99.90;;;;;;5070335;28;20040;-84
2022/09/25 10:35:42;;;;;;;2.45;0.95;;;15.70;99.90;;;;;;5068318;28;20045;-85
2022/09/25 10:38:31;;;;;;;4.40;0.47;;;15.80;99.90;;;;;;5050735;28;20482;-84
2022/09/25 10:41:01;;;;;;;2.15;0.60;;;16.00;99.90;;;;;;5050223;28;20037;-84
2022/09/25 10:43:28;;;;;;;0.65;0.30;;;16.10;99.90;;;;;;5050135;28;20041;-84
2022/09/25 10:46:05;;;;;;;3.05;0.50;;;16.20;99.90;;;;;;5032330;28;20383;-85
2022/09/25 10:51:20;;;;;;;6.25;0.52;;;16.40;99.90;;;;;;5046397;28;20050;-84
2022/09/25 10:54:11;;;;;;;3.63;0.82;;;16.50;99.90;;;;;;5030175;28;20129;-84
2022/09/25 10:56:39;;;;;;;3.15;0.88;;;16.60;99.90;;;;;;5041165;28;20057;-84
2022/09/25 10:59:20;;;;;;;1.25;0.50;;;16.60;99.90;;;;;;5039612;28;20508;-85
2022/09/25 11:01:49;;;;;;;1.80;0.55;;;16.70;99.90;;;;;;5060757;28;20034;-84
2022/09/25 11:04:24;;;;;;;1.35;0.60;;;16.60;99.90;;;;;;5050173;28;20437;-84
2022/09/25 11:06:56;;;;;;;3.03;0.70;;;16.50;99.90;;;;;;5049208;28;20559;-85
2022/09/25 11:09:25;;;;;;;2.55;0.60;;;16.60;99.90;;;;;;5044523;28;20544;-84
2022/09/25 11:12:05;;;;;;;3.40;0.60;;;16.70;99.90;;;;;;5040487;28;20036;-84
2022/09/25 11:14:34;;;;;;;3.33;0.50;;;16.80;99.90;;;;;;5029497;28;20124;-84
2022/09/25 11:17:04;;;;;;;0.98;0.40;;;16.90;99.90;;;;;;5022730;28;20045;-84
2022/09/25 11:19:34;;;;;;;1.20;0.40;;;16.80;99.90;;;;;;5014198;28;20455;-84
2022/09/25 11:22:32;;;;;;;3.22;0.50;;;16.60;99.90;;;;;;5046406;28;20064;-84
2022/09/25 11:25:20;;;;;;;3.13;0.70;;;16.40;99.90;;;;;;5029200;28;20046;-84
2022/09/25 11:27:56;;;;;;;1.98;0.60;;;16.20;99.90;;;;;;5025161;28;20041;-84
2022/09/25 11:30:29;;;;;;;3.63;0.70;;;16.00;99.90;;;;;;5021391;28;20217;-84
2022/09/25 11:33:41;;;;;;;0.98;0.43;;;15.90;99.90;;;;;;5024022;28;20092;-84
2022/09/25 11:36:30;;;;;;;1.50;0.50;;;15.80;99.90;;;;;;5000921;28;20614;-84
2022/09/25 11:41:53;;;;;;;1.88;0.50;;;15.40;99.90;;;;;;5045922;28;20120;-84
2022/09/25 11:44:33;;;;;;;1.95;0.55;;;15.20;99.90;;;;;;5034118;28;20033;-84
2022/09/25 11:47:31;;;;;;;4.40;0.75;;;15.10;99.90;;;;;;5023549;28;20070;-84
2022/09/25 11:50:01;;;;;;;3.15;0.63;;;15.10;99.90;;;;;;5025931;28;20045;-84
2022/09/25 11:52:46;;;;;;;3.83;0.70;;;15.00;99.90;;;;;;5026321;28;20038;-84
2022/09/25 11:55:49;;;;;;;0.55;0.50;;;15.10;99.90;;;;;;5040832;28;20080;-84
2022/09/25 11:58:29;;;;;;;0.32;0.30;;;15.10;99.90;;;;;;5029564;28;20559;-84
2022/09/25 12:01:20;;;;;;;3.45;0.50;;;15.10;99.90;;;;;;5029068;28;20030;-84
2022/09/25 12:03:50;;;;;;;2.50;0.60;;;15.20;99.90;;;;;;5010110;28;20050;-84
2022/09/25 12:06:45;;;;;;;4.22;0.73;;;15.30;99.90;;;;;;5029261;28;20045;-84
2022/09/25 12:09:41;;;;;;;2.97;0.52;;;15.30;99.90;;;;;;5029275;28;20045;-84
2022/09/25 12:12:20;;;;;;;3.33;0.68;;;15.30;99.90;;;;;;5029328;28;20045;-84
2022/09/25 12:14:56;;;;;;;3.25;0.45;;;15.20;99.90;;;;;;5029400;28;20054;-84
2022/09/25 12:17:34;;;;;;;;;;;15.20;99.90;;;;;;5030086;28;20046;-83
2022/09/25 12:20:20;;;;;;;2.58;0.55;;;15.30;99.90;;;;;;5045598;28;20007;-84
2022/09/25 12:23:13;;;;;;;2.00;0.60;;;15.40;99.90;;;;;;5029513;28;20057;-83
2022/09/25 12:26:02;;;;;;;1.02;0.50;;;15.60;99.90;;;;;;5027781;28;20077;-84
2022/09/25 12:28:51;;;;;;;2.05;0.60;;;15.90;99.90;;;;;;5045795;28;20057;-84
2022/09/25 12:31:29;;;;;;;3.05;0.68;;;16.10;99.90;;;;;;5029011;28;20037;-84
2022/09/25 12:34:27;;;;;;;3.33;0.80;;;16.30;99.90;;;;;;5028813;28;20046;-84
2022/09/25 12:37:14;;;;;;;1.45;0.68;;;16.40;99.90;;;;;;5029282;28;20084;-84
2022/09/25 12:39:47;;;;;;;4.65;0.77;;;16.50;99.90;;;;;;5029160;28;20072;-84
2022/09/25 12:42:43;;;;;;;3.45;0.70;;;16.40;99.90;;;;;;5028793;28;20521;-84
2022/09/25 12:45:28;;;;;;;3.00;0.68;;;16.30;99.90;;;;;;5043524;28;20046;-84
2022/09/25 12:48:04;;;;;;;2.08;0.70;;;16.10;99.90;;;;;;5015565;28;20042;-84
2022/09/25 12:50:40;;;;;;;2.10;0.60;;;15.80;99.90;;;;;;5028156;28;20038;-84
2022/09/25 12:53:27;;;;;;;1.02;0.60;;;15.60;99.90;;;;;;5028575;28;20038;-84
2022/09/25 12:56:09;;;;;;;1.58;0.50;;;15.50;99.90;;;;;;5026033;28;20512;-84
2022/09/25 12:58:43;;;;;;;2.45;0.57;;;15.30;99.90;;;;;;5015966;28;20495;-84
2022/09/25 13:01:52;;;;;;;0.88;0.40;;;15.20;99.90;;;;;;5028497;28;20117;-84
2022/09/25 13:04:42;;;;;;;0.88;0.43;;;15.20;99.90;;;;;;5048284;28;20635;-84
2022/09/25 13:07:53;;;;;;;2.85;0.70;;;15.10;99.90;;;;;;5031998;28;20088;-84
2022/09/25 13:10:32;;;;;;;3.65;1.13;;;15.10;99.90;;;;;;5001613;28;20046;-84
2022/09/25 13:13:03;;;;;;;2.00;0.70;;;15.10;99.90;;;;;;5036276;28;20041;-84
2022/09/25 13:15:35;;;;;;;3.47;0.47;;;15.10;99.90;;;;;;5052060;28;20468;-84
2022/09/25 13:18:16;;;;;;;1.40;0.50;;;15.10;99.90;;;;;;5051824;28;20037;-84
2022/09/25 13:20:51;;;;;;;4.18;0.63;;;15.10;99.90;;;;;;5051975;28;20076;-83
2022/09/25 13:23:28;;;;;;;4.55;0.85;;;15.00;99.90;;;;;;5051397;28;20041;-83
2022/09/25 13:26:16;;;;;;;4.10;0.50;;;15.00;99.90;;;;;;5035752;28;20041;-84
2022/09/25 13:29:12;;;;;;;3.58;0.77;;;15.00;99.90;;;;;;5045198;28;20041;-84
2022/09/25 13:31:43;;;;;;;2.65;0.73;;;14.90;99.90;;;;;;5048409;28;20045;-85
2022/09/25 13:34:16;;;;;;;3.80;0.93;;;14.90;99.90;;;;;;5032119;28;20042;-79
2022/09/25 13:36:49;;;;;;;4.25;0.82;;;15.00;99.90;;;;;;5068721;28;20053;-79
2022/09/25 13:42:36;;;;;;;4.60;0.50;;;15.20;99.90;;;;;;5067916;28;20132;-80
2022/09/25 13:45:33;;;;;;;2.28;0.55;;;15.20;99.90;;;;;;5044586;28;20739;-80
2022/09/25 13:48:25;;;;;;;3.80;0.68;;;15.30;99.90;;;;;;5068066;28;20048;-79
2022/09/25 13:51:21;;;;;;;2.92;0.60;;;15.40;99.90;;;;;;5048791;28;20045;-79
2022/09/25 13:54:03;;;;;;;2.27;0.40;;;15.40;99.90;;;;;;5051245;28;20048;-79